KMOB/MOB METAR and TAF weather

Enter ICAO airport designator
Station Type Date Time Source
KMOB METAR 2024/04/18 07:56 UTC NOAA

KMOB 180756Z AUTO 14007KT 8SM CLR 21/21 A3006 RMK AO2 SLP178 T02110206


Station Type Date Time Source
KMOB Decoded METAR 2024/04/18 07:56 UTC NOAA

MOBILE REGIONAL AIRPORT, AL, United States (KMOB) 30-41N 88-14W 67M
Apr 18, 2024 - 03:56 AM EDT / 2024.04.18 0756 UTC
Wind: from the SE (140 degrees) at 8 MPH (7 KT):0
Visibility: 8 mile(s):0
Sky conditions: clear
Temperature: 70.0 F (21.1 C)
Dew Point: 69.1 F (20.6 C)
Relative Humidity: 96%
Pressure (altimeter): 30.06 in. Hg (1017 hPa)
ob: KMOB 180756Z AUTO 14007KT 8SM CLR 21/21 A3006 RMK AO2 SLP178 T02110206
cycle: 8

Station Type Date Time Source
KMOB TAF 2024/04/18 06:22 UTC NOAA